createdAt,value
2019-02-16T00:02:17.883Z,2.90
2019-02-16T00:04:47.824Z,2.90
2019-02-16T00:07:18.096Z,3.00
2019-02-16T00:09:48.374Z,2.90
2019-02-16T00:12:18.678Z,2.90
2019-02-16T00:14:48.851Z,2.90
2019-02-16T00:17:19.291Z,2.80
2019-02-16T00:19:50.195Z,2.70
2019-02-16T00:22:20.310Z,3.00
2019-02-16T00:24:50.077Z,3.20
2019-02-16T00:27:20.422Z,3.10
2019-02-16T00:29:50.111Z,3.20
2019-02-16T00:32:20.213Z,3.20
2019-02-16T00:34:50.674Z,3.20
2019-02-16T00:37:21.106Z,3.30
2019-02-16T00:39:51.744Z,3.30
2019-02-16T00:42:23.314Z,3.20
2019-02-16T00:44:53.923Z,3.30
2019-02-16T00:47:23.684Z,3.20
2019-02-16T00:49:53.748Z,3.20
2019-02-16T00:52:23.873Z,3.20
2019-02-16T00:55:12.745Z,3.20
2019-02-16T00:57:42.553Z,3.20
2019-02-16T01:00:12.635Z,3.20
2019-02-16T01:02:42.454Z,3.30
2019-02-16T01:05:12.289Z,3.20
2019-02-16T01:07:42.317Z,3.20
2019-02-16T01:10:12.171Z,3.20
2019-02-16T01:12:41.912Z,3.30
2019-02-16T01:15:11.745Z,3.20
2019-02-16T01:17:41.555Z,3.30
2019-02-16T01:20:12.110Z,3.20
2019-02-16T01:22:42.097Z,3.10
2019-02-16T01:25:12.316Z,3.00
2019-02-16T01:27:42.054Z,2.90
2019-02-16T01:30:12.638Z,2.80
2019-02-16T01:32:42.367Z,2.70
2019-02-16T01:35:12.755Z,2.60
2019-02-16T01:37:42.501Z,2.70
2019-02-16T01:40:12.876Z,2.70
2019-02-16T01:42:42.610Z,2.70
2019-02-16T01:45:12.471Z,2.70
2019-02-16T01:47:42.785Z,2.80
2019-02-16T01:50:13.161Z,2.80
2019-02-16T01:52:43.517Z,2.80
2019-02-16T01:55:13.818Z,2.60
2019-02-16T01:57:44.163Z,2.50
2019-02-16T02:00:14.534Z,2.40
2019-02-16T02:02:45.053Z,2.20
2019-02-16T02:05:15.089Z,2.10
2019-02-16T02:07:45.687Z,2.00
2019-02-16T02:10:15.716Z,2.00
2019-02-16T02:12:45.842Z,2.00
2019-02-16T02:15:15.883Z,2.00
2019-02-16T02:17:46.467Z,2.00
2019-02-16T02:20:16.296Z,2.20
2019-02-16T02:22:46.081Z,2.30
2019-02-16T02:25:16.201Z,2.30
2019-02-16T02:27:46.396Z,2.50
2019-02-16T02:30:16.478Z,2.50
2019-02-16T02:32:46.486Z,2.60
2019-02-16T02:35:16.598Z,2.60
2019-02-16T02:37:47.261Z,2.50
2019-02-16T02:40:17.571Z,2.30
2019-02-16T02:42:47.596Z,2.20
2019-02-16T02:45:17.962Z,2.10
2019-02-16T02:47:48.077Z,2.40
2019-02-16T02:50:18.169Z,2.50
2019-02-16T02:52:48.332Z,2.70
2019-02-16T02:55:18.427Z,2.60
2019-02-16T02:57:48.538Z,2.50
2019-02-16T03:00:18.657Z,2.30
2019-02-16T03:02:48.753Z,2.50
2019-02-16T03:05:18.808Z,2.80
2019-02-16T03:07:48.894Z,2.50
2019-02-16T03:10:19.285Z,2.30
2019-02-16T03:12:49.131Z,2.20
2019-02-16T03:15:19.172Z,2.20
2019-02-16T03:17:49.636Z,2.10
2019-02-16T03:20:20.128Z,2.50
2019-02-16T03:23:15.418Z,2.50
2019-02-16T03:25:49.159Z,2.40
2019-02-16T03:28:34.885Z,2.50
2019-02-16T03:31:38.892Z,2.20
2019-02-16T03:34:14.820Z,2.30
2019-02-16T03:37:29.053Z,2.40
2019-02-16T03:39:59.072Z,2.50
2019-02-16T03:42:29.457Z,2.20
2019-02-16T03:44:59.814Z,2.00
2019-02-16T03:47:30.131Z,1.90
2019-02-16T03:50:00.476Z,1.80
2019-02-16T03:52:30.710Z,2.50
2019-02-16T03:55:00.840Z,2.70
2019-02-16T03:57:31.305Z,2.60
2019-02-16T04:00:01.974Z,2.60
2019-02-16T04:02:32.095Z,2.70
2019-02-16T04:05:02.090Z,2.70
2019-02-16T04:07:32.886Z,2.80
2019-02-16T04:10:02.996Z,2.70
2019-02-16T04:12:33.417Z,2.70
2019-02-16T04:15:03.512Z,2.90
2019-02-16T04:17:33.601Z,2.60
2019-02-16T04:20:04.235Z,2.80
2019-02-16T04:22:34.617Z,3.00
2019-02-16T04:25:23.557Z,3.00
2019-02-16T04:27:53.926Z,2.90
2019-02-16T04:30:24.053Z,2.60
2019-02-16T04:32:53.830Z,2.40
2019-02-16T04:35:23.656Z,2.40
2019-02-16T04:37:53.555Z,2.70
2019-02-16T04:40:23.628Z,2.60
2019-02-16T04:42:53.482Z,2.80
2019-02-16T04:45:23.314Z,3.00
2019-02-16T04:47:53.162Z,3.20
2019-02-16T04:50:23.779Z,3.20
2019-02-16T04:52:54.354Z,3.20
2019-02-16T04:55:24.638Z,3.20
2019-02-16T04:57:55.278Z,2.90
2019-02-16T05:00:25.681Z,2.90
2019-02-16T05:02:55.533Z,2.80
2019-02-16T05:05:25.892Z,2.70
2019-02-16T05:07:56.939Z,2.60
2019-02-16T05:10:27.022Z,2.60
2019-02-16T05:12:57.462Z,2.70
2019-02-16T05:15:27.881Z,2.50
2019-02-16T05:17:57.976Z,2.60
2019-02-16T05:20:28.347Z,2.70
2019-02-16T05:22:58.722Z,2.60
2019-02-16T05:25:29.068Z,2.50
2019-02-16T05:27:59.139Z,2.40
2019-02-16T05:30:29.734Z,2.10
2019-02-16T05:33:00.143Z,2.00
2019-02-16T05:35:30.636Z,1.90
2019-02-16T05:38:01.045Z,2.00
2019-02-16T05:40:30.908Z,1.90
2019-02-16T05:43:01.309Z,1.90
2019-02-16T05:45:31.850Z,1.70
2019-02-16T05:48:01.728Z,1.70
2019-02-16T05:50:31.482Z,1.50
2019-02-16T05:53:01.283Z,1.60
2019-02-16T05:55:31.912Z,1.70
2019-02-16T05:58:02.026Z,1.70
2019-02-16T06:00:32.429Z,1.80
2019-02-16T06:03:02.528Z,1.90
2019-02-16T06:05:32.962Z,1.80
2019-02-16T06:08:02.791Z,1.80
2019-02-16T06:10:32.926Z,1.80
2019-02-16T06:13:03.368Z,1.90
2019-02-16T06:15:33.935Z,1.90
2019-02-16T06:18:03.871Z,1.90
2019-02-16T06:20:33.584Z,2.00
2019-02-16T06:23:04.565Z,1.90
2019-02-16T06:25:34.907Z,1.90
2019-02-16T06:28:04.950Z,1.90
2019-02-16T06:30:34.822Z,2.00
2019-02-16T06:33:04.754Z,2.00
2019-02-16T06:35:39.128Z,1.90
2019-02-16T06:38:09.186Z,2.00
2019-02-16T06:40:41.026Z,2.10
2019-02-16T06:43:10.570Z,2.10
2019-02-16T06:45:40.427Z,2.00
2019-02-16T06:48:10.423Z,2.00
2019-02-16T06:50:40.266Z,1.80
2019-02-16T06:53:13.155Z,1.70
2019-02-16T06:55:49.225Z,1.50
2019-02-16T06:58:19.111Z,1.50
2019-02-16T07:00:48.951Z,1.40
2019-02-16T07:03:18.794Z,1.40
2019-02-16T07:05:49.160Z,1.40
2019-02-16T07:08:19.515Z,1.30
2019-02-16T07:10:49.903Z,1.20
2019-02-16T07:13:20.289Z,1.10
2019-02-16T07:16:09.751Z,1.00
2019-02-16T07:18:45.993Z,1.00
2019-02-16T07:21:16.514Z,0.90
2019-02-16T07:23:46.933Z,0.90
2019-02-16T07:26:36.423Z,0.80
2019-02-16T07:29:07.058Z,0.80
2019-02-16T07:31:37.440Z,0.80
2019-02-16T07:34:07.767Z,0.80
2019-02-16T07:36:37.870Z,0.80
2019-02-16T07:39:09.179Z,0.70
2019-02-16T07:41:39.614Z,0.80
2019-02-16T07:44:38.275Z,1.00
2019-02-16T07:47:20.486Z,1.00
2019-02-16T07:50:13.008Z,1.10
2019-02-16T07:53:03.556Z,1.20
2019-02-16T07:55:52.518Z,1.20
2019-02-16T07:58:40.027Z,1.20
2019-02-16T08:01:27.721Z,1.30
2019-02-16T08:04:08.291Z,1.30
2019-02-16T08:07:12.915Z,1.40
2019-02-16T08:10:11.642Z,1.60
2019-02-16T08:13:19.390Z,1.70
2019-02-16T08:16:30.402Z,1.70
2019-02-16T08:19:19.582Z,1.70
2019-02-16T08:22:04.994Z,1.70
2019-02-16T08:24:43.145Z,1.80
2019-02-16T08:27:41.785Z,1.90
2019-02-16T08:30:32.415Z,1.90
2019-02-16T08:33:30.391Z,2.00
2019-02-16T08:36:25.254Z,2.20
2019-02-16T08:39:09.328Z,2.20
2019-02-16T08:42:00.308Z,2.40
2019-02-16T08:44:40.198Z,2.40
2019-02-16T08:47:27.029Z,2.60
2019-02-16T08:50:21.997Z,4.30
2019-02-16T08:53:09.954Z,8.00
2019-02-16T08:55:48.874Z,11.30
2019-02-16T08:58:50.006Z,12.60
2019-02-16T09:01:38.203Z,13.00
2019-02-16T09:04:26.016Z,13.50
2019-02-16T09:07:19.138Z,13.90
2019-02-16T09:10:06.832Z,14.50
2019-02-16T09:12:58.805Z,15.90
2019-02-16T09:15:48.328Z,15.30
2019-02-16T09:19:08.470Z,15.60
2019-02-16T09:21:55.534Z,14.90
2019-02-16T09:24:47.360Z,16.00
2019-02-16T09:27:35.110Z,15.40
2019-02-16T09:30:31.709Z,15.80
2019-02-16T09:33:21.008Z,16.30
2019-02-16T09:36:13.812Z,17.40
2019-02-16T09:38:56.406Z,18.00
2019-02-16T09:41:41.704Z,18.80
2019-02-16T09:44:26.574Z,19.20
2019-02-16T09:47:18.440Z,20.40
2019-02-16T09:50:03.252Z,19.90
2019-02-16T09:52:55.443Z,20.00
2019-02-16T09:55:56.839Z,19.90
2019-02-16T09:58:44.350Z,19.10
2019-02-16T10:01:31.771Z,19.90
2019-02-16T10:04:23.742Z,19.60
2019-02-16T10:07:13.403Z,19.90
2019-02-16T10:09:59.347Z,20.30
2019-02-16T10:12:48.823Z,21.10
2019-02-16T10:15:47.462Z,21.30
2019-02-16T10:18:46.328Z,21.00
2019-02-16T10:21:34.282Z,21.60
2019-02-16T10:24:29.883Z,21.00
2019-02-16T10:27:22.728Z,21.00
2019-02-16T10:30:10.334Z,21.20
2019-02-16T10:33:02.367Z,21.30
2019-02-16T10:35:51.263Z,21.60
2019-02-16T10:38:52.986Z,22.10
2019-02-16T10:41:32.270Z,20.10
2019-02-16T10:44:23.979Z,20.00
2019-02-16T10:47:04.256Z,20.90
2019-02-16T10:50:11.938Z,19.50
2019-02-16T10:53:00.958Z,19.90
2019-02-16T10:55:48.554Z,20.10
2019-02-16T10:58:39.263Z,20.80
2019-02-16T11:01:47.290Z,20.70
2019-02-16T11:04:42.274Z,20.40
2019-02-16T11:07:40.343Z,20.60
2019-02-16T11:10:35.387Z,20.40
2019-02-16T11:13:27.635Z,20.30
2019-02-16T11:16:21.670Z,20.70
2019-02-16T11:19:10.530Z,20.10
2019-02-16T11:21:50.103Z,19.70
2019-02-16T11:24:36.167Z,19.90
2019-02-16T11:27:27.291Z,20.00
2019-02-16T11:30:10.429Z,19.50
2019-02-16T11:32:50.962Z,19.50
2019-02-16T11:35:40.434Z,19.70
2019-02-16T11:38:32.826Z,19.20
2019-02-16T11:41:33.686Z,19.30
2019-02-16T11:44:28.558Z,19.80
2019-02-16T11:47:21.255Z,20.30
2019-02-16T11:50:05.754Z,19.90
2019-02-16T11:53:06.733Z,20.00
2019-02-16T11:56:01.527Z,20.50
2019-02-16T11:58:49.535Z,20.30
2019-02-16T12:01:31.985Z,20.60
2019-02-16T12:04:06.555Z,19.40
2019-02-16T12:06:52.966Z,19.40
2019-02-16T12:09:45.159Z,19.90
2019-02-16T12:12:38.767Z,20.60
2019-02-16T12:15:18.951Z,21.80
2019-02-16T12:18:21.814Z,21.90
2019-02-16T12:21:19.984Z,21.20
2019-02-16T12:24:15.194Z,21.30
2019-02-16T12:27:02.825Z,21.30
2019-02-16T12:30:10.882Z,21.90
2019-02-16T12:32:58.838Z,21.70
2019-02-16T12:35:48.115Z,21.60
2019-02-16T12:38:33.988Z,21.20
2019-02-16T12:41:10.174Z,21.50
2019-02-16T12:43:58.294Z,21.70
2019-02-16T12:46:35.405Z,21.80
2019-02-16T12:49:30.551Z,21.70
2019-02-16T12:52:21.322Z,21.90
2019-02-16T12:55:15.108Z,21.60
2019-02-16T12:57:59.029Z,21.60
2019-02-16T13:00:42.782Z,21.70
2019-02-16T13:03:32.006Z,21.50
2019-02-16T13:06:12.705Z,21.30
2019-02-16T13:09:00.412Z,21.40
2019-02-16T13:11:48.467Z,21.10
2019-02-16T13:14:43.720Z,20.70
2019-02-16T13:17:48.363Z,20.70
2019-02-16T13:20:50.187Z,20.70
2019-02-16T13:23:37.922Z,20.50
2019-02-16T13:26:21.726Z,20.70
2019-02-16T13:29:06.536Z,20.70
2019-02-16T13:32:02.019Z,20.50
2019-02-16T13:34:39.410Z,20.40
2019-02-16T13:37:31.391Z,20.10
2019-02-16T13:40:11.602Z,19.90
2019-02-16T13:43:10.279Z,19.80
2019-02-16T13:45:52.350Z,19.90
2019-02-16T13:48:29.390Z,19.50
2019-02-16T13:51:24.531Z,19.10
2019-02-16T13:54:01.375Z,19.00
2019-02-16T13:56:59.371Z,18.90
2019-02-16T13:59:39.284Z,18.60
2019-02-16T14:02:27.271Z,18.20
2019-02-16T14:05:16.899Z,18.00
2019-02-16T14:08:02.179Z,17.50
2019-02-16T14:10:41.703Z,17.30
2019-02-16T14:13:43.674Z,16.90
2019-02-16T14:16:31.537Z,16.70
2019-02-16T14:19:01.966Z,16.70
2019-02-16T14:21:32.516Z,16.60
2019-02-16T14:24:02.577Z,16.50
2019-02-16T14:26:32.530Z,16.50
2019-02-16T14:29:02.499Z,16.40
2019-02-16T14:31:32.432Z,16.30
2019-02-16T14:34:02.314Z,16.30
2019-02-16T14:36:32.218Z,16.20
2019-02-16T14:39:10.349Z,16.20
2019-02-16T14:41:40.234Z,16.30
2019-02-16T14:44:10.741Z,16.20
2019-02-16T14:46:40.566Z,16.20
2019-02-16T14:49:10.746Z,16.10
2019-02-16T14:51:40.638Z,16.00
2019-02-16T14:54:11.118Z,16.10
2019-02-16T14:56:41.253Z,16.00
2019-02-16T14:59:11.467Z,16.00
2019-02-16T15:01:41.646Z,16.00
2019-02-16T15:04:12.171Z,16.00
2019-02-16T15:06:42.215Z,16.00
2019-02-16T15:09:12.623Z,16.00
2019-02-16T15:11:42.572Z,15.90
2019-02-16T15:14:12.554Z,15.90
2019-02-16T15:16:42.787Z,15.90
2019-02-16T15:19:13.079Z,15.90
2019-02-16T15:21:43.623Z,15.80
2019-02-16T15:24:14.060Z,15.80
2019-02-16T15:26:44.003Z,15.70
2019-02-16T15:29:13.889Z,15.70
2019-02-16T15:31:44.258Z,15.70
2019-02-16T15:34:14.868Z,15.60
2019-02-16T15:36:44.980Z,15.60
2019-02-16T15:39:15.575Z,15.50
2019-02-16T15:41:45.754Z,15.40
2019-02-16T15:44:16.204Z,15.40
2019-02-16T15:46:46.033Z,15.30
2019-02-16T15:49:15.822Z,15.30
2019-02-16T15:51:49.171Z,15.20
2019-02-16T15:54:18.992Z,15.20
2019-02-16T15:56:50.880Z,15.10
2019-02-16T15:59:20.338Z,15.00
2019-02-16T16:01:50.583Z,15.00
2019-02-16T16:04:21.554Z,15.00
2019-02-16T16:06:51.656Z,14.80
2019-02-16T16:09:34.584Z,14.80
2019-02-16T16:12:22.317Z,14.60
2019-02-16T16:15:00.866Z,14.50
2019-02-16T16:17:52.166Z,14.60
2019-02-16T16:20:40.522Z,14.70
2019-02-16T16:23:38.834Z,14.70
2019-02-16T16:27:02.875Z,14.50
2019-02-16T16:29:41.394Z,14.50
2019-02-16T16:32:18.429Z,14.20
2019-02-16T16:35:01.212Z,14.00
2019-02-16T16:37:37.759Z,13.80
2019-02-16T16:40:31.867Z,13.50
2019-02-16T16:43:14.688Z,13.30
2019-02-16T16:46:04.499Z,13.00
2019-02-16T16:49:02.976Z,12.70
2019-02-16T16:51:50.523Z,12.40
2019-02-16T16:54:38.640Z,12.00
2019-02-16T16:57:27.561Z,11.80
2019-02-16T17:00:05.255Z,11.60
2019-02-16T17:03:01.491Z,11.40
2019-02-16T17:05:50.399Z,11.20
2019-02-16T17:08:42.434Z,11.00
2019-02-16T17:11:29.490Z,10.90
2019-02-16T17:14:27.522Z,10.80
2019-02-16T17:17:15.055Z,10.70
2019-02-16T17:20:04.021Z,10.60
2019-02-16T17:22:55.930Z,10.50
2019-02-16T17:25:43.870Z,10.50
2019-02-16T17:28:30.321Z,10.30
2019-02-16T17:31:25.118Z,10.20
2019-02-16T17:34:16.885Z,10.10
2019-02-16T17:36:59.771Z,10.10
2019-02-16T17:39:47.963Z,10.00
2019-02-16T17:42:35.740Z,9.90
2019-02-16T17:45:19.107Z,9.90
2019-02-16T17:48:02.302Z,9.70
2019-02-16T17:50:51.215Z,9.60
2019-02-16T17:53:40.968Z,9.50
2019-02-16T17:56:25.244Z,9.30
2019-02-16T17:59:07.340Z,9.20
2019-02-16T18:02:05.360Z,9.10
2019-02-16T18:05:07.194Z,9.10
2019-02-16T18:07:59.663Z,9.00
2019-02-16T18:10:40.635Z,9.00
2019-02-16T18:13:48.415Z,9.00
2019-02-16T18:16:44.123Z,8.90
2019-02-16T18:19:28.722Z,8.80
2019-02-16T18:22:13.631Z,8.50
2019-02-16T18:24:49.700Z,8.60
2019-02-16T18:28:02.376Z,8.60
2019-02-16T18:31:00.739Z,8.60
2019-02-16T18:33:41.933Z,8.50
2019-02-16T18:36:40.629Z,8.40
2019-02-16T18:39:24.204Z,8.50
2019-02-16T18:42:12.362Z,8.60
2019-02-16T18:44:49.564Z,8.40
2019-02-16T18:47:26.171Z,8.30
2019-02-16T18:50:14.185Z,8.20
2019-02-16T18:53:02.538Z,8.10
2019-02-16T18:55:54.967Z,8.00
2019-02-16T18:58:33.750Z,7.90
2019-02-16T19:01:13.211Z,7.90
2019-02-16T19:03:57.148Z,7.90
2019-02-16T19:06:29.766Z,7.90
2019-02-16T19:09:25.705Z,7.90
2019-02-16T19:12:29.939Z,7.80
2019-02-16T19:15:22.743Z,7.60
2019-02-16T19:18:04.373Z,7.60
2019-02-16T19:20:41.642Z,7.60
2019-02-16T19:23:23.258Z,7.60
2019-02-16T19:26:15.890Z,7.50
2019-02-16T19:28:54.546Z,7.30
2019-02-16T19:31:38.304Z,7.30
2019-02-16T19:34:26.162Z,7.20
2019-02-16T19:37:28.039Z,7.20
2019-02-16T19:40:18.687Z,7.20
2019-02-16T19:43:14.114Z,7.20
2019-02-16T19:46:18.155Z,7.20
2019-02-16T19:49:00.759Z,7.10
2019-02-16T19:51:37.516Z,7.00
2019-02-16T19:54:28.734Z,6.90
2019-02-16T19:57:26.890Z,6.90
2019-02-16T20:00:09.850Z,6.80
2019-02-16T20:03:02.097Z,6.70
2019-02-16T20:05:44.366Z,6.70
2019-02-16T20:08:33.341Z,6.80
2019-02-16T20:11:31.886Z,6.80
2019-02-16T20:14:23.551Z,6.90
2019-02-16T20:17:30.214Z,6.80
2019-02-16T20:20:09.220Z,6.80
2019-02-16T20:23:15.858Z,6.90
2019-02-16T20:26:03.371Z,7.00
2019-02-16T20:28:58.345Z,7.00
2019-02-16T20:31:38.952Z,6.80
2019-02-16T20:34:24.855Z,6.70
2019-02-16T20:37:00.238Z,6.60
2019-02-16T20:39:39.000Z,6.40
2019-02-16T20:42:19.326Z,6.40
2019-02-16T20:45:04.895Z,6.40
2019-02-16T20:47:49.424Z,6.40
2019-02-16T20:50:36.922Z,6.40
2019-02-16T20:53:28.615Z,6.40
2019-02-16T20:56:11.173Z,6.30
2019-02-16T20:59:12.307Z,6.30
2019-02-16T21:01:49.099Z,6.20
2019-02-16T21:04:36.545Z,6.20
2019-02-16T21:07:30.811Z,6.20
2019-02-16T21:10:22.479Z,6.10
2019-02-16T21:12:59.714Z,6.20
2019-02-16T21:15:57.554Z,6.30
2019-02-16T21:18:36.330Z,6.30
2019-02-16T21:21:50.462Z,6.30
2019-02-16T21:24:38.238Z,6.30
2019-02-16T21:27:17.374Z,6.30
2019-02-16T21:30:16.026Z,6.30
2019-02-16T21:33:20.345Z,6.30
2019-02-16T21:36:01.798Z,6.20
2019-02-16T21:39:02.707Z,6.20
2019-02-16T21:41:43.840Z,6.20
2019-02-16T21:44:33.432Z,6.20
2019-02-16T21:47:12.534Z,6.10
2019-02-16T21:49:55.442Z,6.00
2019-02-16T21:52:43.396Z,6.00
2019-02-16T21:55:35.379Z,5.90
2019-02-16T21:58:30.738Z,5.90
2019-02-16T22:01:23.294Z,5.90
2019-02-16T22:04:02.353Z,5.80
2019-02-16T22:07:00.620Z,5.70
2019-02-16T22:09:45.701Z,5.70
2019-02-16T22:12:38.475Z,5.60
2019-02-16T22:15:09.199Z,5.60
2019-02-16T22:17:39.590Z,5.60
2019-02-16T22:20:10.452Z,5.50
2019-02-16T22:22:40.669Z,5.40
2019-02-16T22:25:10.814Z,5.40
2019-02-16T22:27:40.952Z,5.50
2019-02-16T22:30:11.078Z,5.60
2019-02-16T22:32:41.186Z,5.60
2019-02-16T22:35:11.695Z,5.70
2019-02-16T22:37:41.918Z,5.70
2019-02-16T22:40:11.850Z,5.60
2019-02-16T22:42:41.974Z,5.50
2019-02-16T22:45:11.832Z,5.40
2019-02-16T22:47:41.694Z,5.30
2019-02-16T22:50:11.554Z,5.30
2019-02-16T22:52:41.455Z,5.30
2019-02-16T22:55:13.113Z,5.30
2019-02-16T22:57:43.033Z,5.30
2019-02-16T23:00:27.647Z,5.40
2019-02-16T23:02:58.021Z,5.50
2019-02-16T23:05:28.192Z,5.40
2019-02-16T23:07:58.667Z,5.30
2019-02-16T23:10:29.298Z,5.40
2019-02-16T23:12:59.710Z,5.40
2019-02-16T23:15:29.625Z,5.40
2019-02-16T23:17:59.476Z,5.40
2019-02-16T23:20:29.319Z,5.40
2019-02-16T23:22:59.685Z,5.30
2019-02-16T23:25:30.328Z,5.30
2019-02-16T23:28:00.536Z,5.30
2019-02-16T23:30:30.622Z,5.40
2019-02-16T23:33:00.462Z,5.50
2019-02-16T23:35:30.293Z,5.40
2019-02-16T23:38:22.727Z,5.40
2019-02-16T23:40:52.806Z,5.40
2019-02-16T23:43:23.459Z,5.50
2019-02-16T23:45:53.462Z,5.30
2019-02-16T23:48:23.930Z,5.30
2019-02-16T23:50:53.706Z,5.20
2019-02-16T23:53:23.837Z,5.10
2019-02-16T23:55:54.438Z,5.10
2019-02-16T23:58:24.571Z,5.20
